sensor_id;sensor_type;location;lat;lon;timestamp;temperature;humidity
59651;DHT22;45954;49.768;8.636;2023-07-29T00:01:13;20.10;99.90
59651;DHT22;45954;49.768;8.636;2023-07-29T00:03:38;20.10;99.90
59651;DHT22;45954;49.768;8.636;2023-07-29T00:06:04;20.30;99.90
59651;DHT22;45954;49.768;8.636;2023-07-29T00:08:30;20.40;99.90
59651;DHT22;45954;49.768;8.636;2023-07-29T00:10:56;20.50;99.90
59651;DHT22;45954;49.768;8.636;2023-07-29T00:13:22;20.50;99.90
59651;DHT22;45954;49.768;8.636;2023-07-29T00:15:48;20.50;99.90
59651;DHT22;45954;49.768;8.636;2023-07-29T00:18:14;20.50;99.90
59651;DHT22;45954;49.768;8.636;2023-07-29T00:20:39;20.50;99.90
59651;DHT22;45954;49.768;8.636;2023-07-29T00:23:05;20.50;99.90
59651;DHT22;45954;49.768;8.636;2023-07-29T00:25:31;20.60;99.90
59651;DHT22;45954;49.768;8.636;2023-07-29T00:27:58;20.60;99.90
59651;DHT22;45954;49.768;8.636;2023-07-29T00:30:24;20.50;99.90
59651;DHT22;45954;49.768;8.636;2023-07-29T00:32:50;20.60;99.90
59651;DHT22;45954;49.768;8.636;2023-07-29T00:35:15;20.70;99.90
59651;DHT22;45954;49.768;8.636;2023-07-29T00:37:41;20.70;99.90
59651;DHT22;45954;49.768;8.636;2023-07-29T00:40:15;20.50;99.90
59651;DHT22;45954;49.768;8.636;2023-07-29T00:42:46;20.60;99.90
59651;DHT22;45954;49.768;8.636;2023-07-29T00:45:13;20.70;99.90
59651;DHT22;45954;49.768;8.636;2023-07-29T00:47:39;20.60;99.90
59651;DHT22;45954;49.768;8.636;2023-07-29T00:50:06;20.60;99.90
59651;DHT22;45954;49.768;8.636;2023-07-29T00:52:34;20.60;99.90
59651;DHT22;45954;49.768;8.636;2023-07-29T00:55:00;20.60;99.90
59651;DHT22;45954;49.768;8.636;2023-07-29T00:57:26;20.70;99.90
59651;DHT22;45954;49.768;8.636;2023-07-29T00:59:54;20.70;99.90
59651;DHT22;45954;49.768;8.636;2023-07-29T01:02:20;20.70;99.90
59651;DHT22;45954;49.768;8.636;2023-07-29T01:04:49;20.70;99.90
59651;DHT22;45954;49.768;8.636;2023-07-29T01:07:25;20.70;99.90
59651;DHT22;45954;49.768;8.636;2023-07-29T01:10:26;20.70;99.90
59651;DHT22;45954;49.768;8.636;2023-07-29T01:13:13;20.80;99.90
59651;DHT22;45954;49.768;8.636;2023-07-29T01:16:02;20.80;99.90
59651;DHT22;45954;49.768;8.636;2023-07-29T01:18:36;20.80;99.90
59651;DHT22;45954;49.768;8.636;2023-07-29T01:21:08;20.70;99.90
59651;DHT22;45954;49.768;8.636;2023-07-29T01:23:35;20.60;99.90
59651;DHT22;45954;49.768;8.636;2023-07-29T01:26:02;20.60;99.90
59651;DHT22;45954;49.768;8.636;2023-07-29T01:28:29;20.70;99.90
59651;DHT22;45954;49.768;8.636;2023-07-29T01:31:32;20.70;99.90
59651;DHT22;45954;49.768;8.636;2023-07-29T01:34:13;20.80;99.90
59651;DHT22;45954;49.768;8.636;2023-07-29T01:36:43;20.80;99.90
59651;DHT22;45954;49.768;8.636;2023-07-29T01:39:12;20.90;99.90
59651;DHT22;45954;49.768;8.636;2023-07-29T01:41:41;20.80;99.90
59651;DHT22;45954;49.768;8.636;2023-07-29T01:44:09;20.80;99.90
59651;DHT22;45954;49.768;8.636;2023-07-29T01:46:37;20.80;99.90
59651;DHT22;45954;49.768;8.636;2023-07-29T01:49:02;20.70;99.90
59651;DHT22;45954;49.768;8.636;2023-07-29T01:51:28;20.80;99.90
59651;DHT22;45954;49.768;8.636;2023-07-29T01:53:54;20.80;99.90
59651;DHT22;45954;49.768;8.636;2023-07-29T01:56:21;20.90;99.90
59651;DHT22;45954;49.768;8.636;2023-07-29T01:58:47;20.90;99.90
59651;DHT22;45954;49.768;8.636;2023-07-29T02:01:13;20.80;99.90
59651;DHT22;45954;49.768;8.636;2023-07-29T02:03:39;20.90;99.90
59651;DHT22;45954;49.768;8.636;2023-07-29T02:06:05;20.70;99.90
59651;DHT22;45954;49.768;8.636;2023-07-29T02:08:30;20.60;99.90
59651;DHT22;45954;49.768;8.636;2023-07-29T02:10:56;20.40;99.90
59651;DHT22;45954;49.768;8.636;2023-07-29T02:13:22;20.50;99.90
59651;DHT22;45954;49.768;8.636;2023-07-29T02:15:49;20.50;99.90
59651;DHT22;45954;49.768;8.636;2023-07-29T02:18:15;20.50;99.90
59651;DHT22;45954;49.768;8.636;2023-07-29T02:20:41;20.50;99.90
59651;DHT22;45954;49.768;8.636;2023-07-29T02:23:11;20.60;99.90
59651;DHT22;45954;49.768;8.636;2023-07-29T02:25:37;20.60;99.90
59651;DHT22;45954;49.768;8.636;2023-07-29T02:28:03;20.70;99.90
59651;DHT22;45954;49.768;8.636;2023-07-29T02:30:29;20.70;99.90
59651;DHT22;45954;49.768;8.636;2023-07-29T02:32:55;20.60;99.90
59651;DHT22;45954;49.768;8.636;2023-07-29T02:35:21;20.70;99.90
59651;DHT22;45954;49.768;8.636;2023-07-29T02:37:47;20.70;99.90
59651;DHT22;45954;49.768;8.636;2023-07-29T02:40:12;20.70;99.90
59651;DHT22;45954;49.768;8.636;2023-07-29T02:42:38;20.60;99.90
59651;DHT22;45954;49.768;8.636;2023-07-29T02:45:04;20.60;99.90
59651;DHT22;45954;49.768;8.636;2023-07-29T02:47:35;20.50;99.90
59651;DHT22;45954;49.768;8.636;2023-07-29T02:50:02;20.60;99.90
59651;DHT22;45954;49.768;8.636;2023-07-29T02:52:28;20.50;99.90
59651;DHT22;45954;49.768;8.636;2023-07-29T02:54:54;20.70;99.90
59651;DHT22;45954;49.768;8.636;2023-07-29T02:57:20;20.60;99.90
59651;DHT22;45954;49.768;8.636;2023-07-29T02:59:46;20.50;99.90
59651;DHT22;45954;49.768;8.636;2023-07-29T03:02:11;20.60;99.90
59651;DHT22;45954;49.768;8.636;2023-07-29T03:04:37;20.70;99.90
59651;DHT22;45954;49.768;8.636;2023-07-29T03:07:03;20.60;99.90
59651;DHT22;45954;49.768;8.636;2023-07-29T03:09:29;20.60;99.90
59651;DHT22;45954;49.768;8.636;2023-07-29T03:11:55;20.50;99.90
59651;DHT22;45954;49.768;8.636;2023-07-29T03:14:21;20.60;99.90
59651;DHT22;45954;49.768;8.636;2023-07-29T03:16:47;20.60;99.90
59651;DHT22;45954;49.768;8.636;2023-07-29T03:19:13;20.60;99.90
59651;DHT22;45954;49.768;8.636;2023-07-29T03:21:38;20.70;99.90
59651;DHT22;45954;49.768;8.636;2023-07-29T03:24:04;20.60;99.90
59651;DHT22;45954;49.768;8.636;2023-07-29T03:26:30;20.60;99.90
59651;DHT22;45954;49.768;8.636;2023-07-29T03:28:56;20.70;99.90
59651;DHT22;45954;49.768;8.636;2023-07-29T03:31:22;20.70;99.90
59651;DHT22;45954;49.768;8.636;2023-07-29T03:33:48;20.70;99.90
59651;DHT22;45954;49.768;8.636;2023-07-29T03:36:13;20.70;99.90
59651;DHT22;45954;49.768;8.636;2023-07-29T03:38:39;20.70;99.90
59651;DHT22;45954;49.768;8.636;2023-07-29T03:41:09;20.60;99.90
59651;DHT22;45954;49.768;8.636;2023-07-29T03:43:35;20.70;99.90
59651;DHT22;45954;49.768;8.636;2023-07-29T03:46:01;20.70;99.90
59651;DHT22;45954;49.768;8.636;2023-07-29T03:48:27;20.80;99.90
59651;DHT22;45954;49.768;8.636;2023-07-29T03:50:52;20.70;99.90
59651;DHT22;45954;49.768;8.636;2023-07-29T03:53:19;20.70;99.90
59651;DHT22;45954;49.768;8.636;2023-07-29T03:55:44;20.70;99.90
59651;DHT22;45954;49.768;8.636;2023-07-29T03:58:11;20.70;99.90
59651;DHT22;45954;49.768;8.636;2023-07-29T04:00:37;20.60;99.90
59651;DHT22;45954;49.768;8.636;2023-07-29T04:03:03;20.50;99.90
59651;DHT22;45954;49.768;8.636;2023-07-29T04:05:29;20.50;99.90
59651;DHT22;45954;49.768;8.636;2023-07-29T04:07:54;20.50;99.90
59651;DHT22;45954;49.768;8.636;2023-07-29T04:10:21;20.50;99.90
59651;DHT22;45954;49.768;8.636;2023-07-29T04:12:46;20.60;99.90
59651;DHT22;45954;49.768;8.636;2023-07-29T04:15:12;20.60;99.90
59651;DHT22;45954;49.768;8.636;2023-07-29T04:17:38;20.70;99.90
59651;DHT22;45954;49.768;8.636;2023-07-29T04:20:04;20.70;99.90
59651;DHT22;45954;49.768;8.636;2023-07-29T04:22:30;20.70;99.90
59651;DHT22;45954;49.768;8.636;2023-07-29T04:24:56;20.70;99.90
59651;DHT22;45954;49.768;8.636;2023-07-29T04:27:22;20.70;99.90
59651;DHT22;45954;49.768;8.636;2023-07-29T04:29:48;20.70;99.90
59651;DHT22;45954;49.768;8.636;2023-07-29T04:32:14;20.70;99.90
59651;DHT22;45954;49.768;8.636;2023-07-29T04:34:40;20.70;99.90
59651;DHT22;45954;49.768;8.636;2023-07-29T04:37:06;20.70;99.90
59651;DHT22;45954;49.768;8.636;2023-07-29T04:39:31;20.70;99.90
59651;DHT22;45954;49.768;8.636;2023-07-29T04:41:58;20.70;99.90
59651;DHT22;45954;49.768;8.636;2023-07-29T04:44:24;20.80;99.90
59651;DHT22;45954;49.768;8.636;2023-07-29T04:46:50;20.70;99.90
59651;DHT22;45954;49.768;8.636;2023-07-29T04:49:16;20.60;99.90
59651;DHT22;45954;49.768;8.636;2023-07-29T04:51:42;20.70;99.90
59651;DHT22;45954;49.768;8.636;2023-07-29T04:54:07;20.80;99.90
59651;DHT22;45954;49.768;8.636;2023-07-29T04:56:33;20.80;99.90
59651;DHT22;45954;49.768;8.636;2023-07-29T04:58:59;20.90;99.90
59651;DHT22;45954;49.768;8.636;2023-07-29T05:01:25;20.80;99.90
59651;DHT22;45954;49.768;8.636;2023-07-29T05:03:51;20.90;99.90
59651;DHT22;45954;49.768;8.636;2023-07-29T05:06:17;21.00;99.90
59651;DHT22;45954;49.768;8.636;2023-07-29T05:08:43;21.00;99.90
59651;DHT22;45954;49.768;8.636;2023-07-29T05:11:09;21.00;99.90
59651;DHT22;45954;49.768;8.636;2023-07-29T05:13:34;21.00;99.90
59651;DHT22;45954;49.768;8.636;2023-07-29T05:16:00;21.10;99.90
59651;DHT22;45954;49.768;8.636;2023-07-29T05:18:26;21.20;99.90
59651;DHT22;45954;49.768;8.636;2023-07-29T05:20:52;21.10;99.90
59651;DHT22;45954;49.768;8.636;2023-07-29T05:23:18;21.20;99.90
59651;DHT22;45954;49.768;8.636;2023-07-29T05:25:43;21.10;99.90
59651;DHT22;45954;49.768;8.636;2023-07-29T05:28:09;21.10;99.90
59651;DHT22;45954;49.768;8.636;2023-07-29T05:30:35;21.10;99.90
59651;DHT22;45954;49.768;8.636;2023-07-29T05:33:06;21.10;99.90
59651;DHT22;45954;49.768;8.636;2023-07-29T05:35:34;20.90;99.90
59651;DHT22;45954;49.768;8.636;2023-07-29T05:37:59;20.90;99.90
59651;DHT22;45954;49.768;8.636;2023-07-29T05:40:25;20.90;99.90
59651;DHT22;45954;49.768;8.636;2023-07-29T05:42:51;21.00;99.90
59651;DHT22;45954;49.768;8.636;2023-07-29T05:45:17;20.90;99.90
59651;DHT22;45954;49.768;8.636;2023-07-29T05:47:43;21.00;99.90
59651;DHT22;45954;49.768;8.636;2023-07-29T05:50:09;21.00;99.90
59651;DHT22;45954;49.768;8.636;2023-07-29T05:52:35;21.00;99.90
59651;DHT22;45954;49.768;8.636;2023-07-29T05:55:01;21.20;99.90
59651;DHT22;45954;49.768;8.636;2023-07-29T05:57:27;21.20;99.90
59651;DHT22;45954;49.768;8.636;2023-07-29T05:59:53;21.20;99.90
59651;DHT22;45954;49.768;8.636;2023-07-29T06:02:19;21.20;99.90
59651;DHT22;45954;49.768;8.636;2023-07-29T06:04:45;21.30;99.90
59651;DHT22;45954;49.768;8.636;2023-07-29T06:07:11;21.10;99.90
59651;DHT22;45954;49.768;8.636;2023-07-29T06:09:36;21.20;99.90
59651;DHT22;45954;49.768;8.636;2023-07-29T06:12:02;21.10;99.90
59651;DHT22;45954;49.768;8.636;2023-07-29T06:14:28;21.10;99.90
59651;DHT22;45954;49.768;8.636;2023-07-29T06:16:54;21.10;99.90
59651;DHT22;45954;49.768;8.636;2023-07-29T06:19:20;21.00;99.90
59651;DHT22;45954;49.768;8.636;2023-07-29T06:21:47;20.90;99.90
59651;DHT22;45954;49.768;8.636;2023-07-29T06:24:14;21.00;99.90
59651;DHT22;45954;49.768;8.636;2023-07-29T06:26:39;21.00;99.90
59651;DHT22;45954;49.768;8.636;2023-07-29T06:29:05;20.80;99.90
59651;DHT22;45954;49.768;8.636;2023-07-29T06:31:31;20.90;99.90
59651;DHT22;45954;49.768;8.636;2023-07-29T06:33:58;20.80;99.90
59651;DHT22;45954;49.768;8.636;2023-07-29T06:36:24;20.80;99.90
59651;DHT22;45954;49.768;8.636;2023-07-29T06:38:50;20.90;99.90
59651;DHT22;45954;49.768;8.636;2023-07-29T06:41:16;20.70;99.90
59651;DHT22;45954;49.768;8.636;2023-07-29T06:43:42;20.60;99.90
59651;DHT22;45954;49.768;8.636;2023-07-29T06:46:08;20.60;99.90
59651;DHT22;45954;49.768;8.636;2023-07-29T06:48:34;20.60;99.90
59651;DHT22;45954;49.768;8.636;2023-07-29T06:50:59;20.60;99.90
59651;DHT22;45954;49.768;8.636;2023-07-29T06:53:27;20.50;99.90
59651;DHT22;45954;49.768;8.636;2023-07-29T06:55:53;20.40;99.90
59651;DHT22;45954;49.768;8.636;2023-07-29T06:58:19;20.30;99.90
59651;DHT22;45954;49.768;8.636;2023-07-29T07:00:45;20.30;99.90
59651;DHT22;45954;49.768;8.636;2023-07-29T07:03:11;20.30;99.90
59651;DHT22;45954;49.768;8.636;2023-07-29T07:05:37;20.30;99.90
59651;DHT22;45954;49.768;8.636;2023-07-29T07:08:03;20.30;99.90
59651;DHT22;45954;49.768;8.636;2023-07-29T07:10:29;20.30;99.90
59651;DHT22;45954;49.768;8.636;2023-07-29T07:12:54;20.40;99.90
59651;DHT22;45954;49.768;8.636;2023-07-29T07:15:20;20.30;99.90
59651;DHT22;45954;49.768;8.636;2023-07-29T07:17:46;20.50;99.90
59651;DHT22;45954;49.768;8.636;2023-07-29T07:20:12;20.40;99.90
59651;DHT22;45954;49.768;8.636;2023-07-29T07:22:38;20.50;99.90
59651;DHT22;45954;49.768;8.636;2023-07-29T07:25:05;20.50;99.90
59651;DHT22;45954;49.768;8.636;2023-07-29T07:27:31;20.40;99.90
59651;DHT22;45954;49.768;8.636;2023-07-29T07:29:57;20.30;99.90
59651;DHT22;45954;49.768;8.636;2023-07-29T07:32:23;20.40;99.90
59651;DHT22;45954;49.768;8.636;2023-07-29T07:34:48;20.20;99.90
59651;DHT22;45954;49.768;8.636;2023-07-29T07:37:15;19.80;99.90
59651;DHT22;45954;49.768;8.636;2023-07-29T07:39:41;19.70;99.90
59651;DHT22;45954;49.768;8.636;2023-07-29T07:42:07;19.70;99.90
59651;DHT22;45954;49.768;8.636;2023-07-29T07:44:33;19.80;99.90
59651;DHT22;45954;49.768;8.636;2023-07-29T07:46:58;19.90;99.90
59651;DHT22;45954;49.768;8.636;2023-07-29T07:49:24;20.00;99.90
59651;DHT22;45954;49.768;8.636;2023-07-29T07:51:50;19.90;99.90
59651;DHT22;45954;49.768;8.636;2023-07-29T07:54:16;20.00;99.90
59651;DHT22;45954;49.768;8.636;2023-07-29T07:56:43;20.00;99.90
59651;DHT22;45954;49.768;8.636;2023-07-29T07:59:09;20.00;99.90
59651;DHT22;45954;49.768;8.636;2023-07-29T08:01:38;20.00;99.90
59651;DHT22;45954;49.768;8.636;2023-07-29T08:04:05;20.20;99.90
59651;DHT22;45954;49.768;8.636;2023-07-29T08:06:32;20.20;99.90
59651;DHT22;45954;49.768;8.636;2023-07-29T08:08:59;20.30;99.90
59651;DHT22;45954;49.768;8.636;2023-07-29T08:11:25;20.30;99.90
59651;DHT22;45954;49.768;8.636;2023-07-29T08:13:51;20.40;99.90
59651;DHT22;45954;49.768;8.636;2023-07-29T08:16:17;20.40;99.90
59651;DHT22;45954;49.768;8.636;2023-07-29T08:18:46;20.60;99.90
59651;DHT22;45954;49.768;8.636;2023-07-29T08:21:12;20.80;99.90
59651;DHT22;45954;49.768;8.636;2023-07-29T08:23:38;20.90;99.90
59651;DHT22;45954;49.768;8.636;2023-07-29T08:26:05;20.80;99.90
59651;DHT22;45954;49.768;8.636;2023-07-29T08:28:33;20.70;99.90
59651;DHT22;45954;49.768;8.636;2023-07-29T08:31:04;20.70;99.90
59651;DHT22;45954;49.768;8.636;2023-07-29T08:33:31;20.60;99.90
59651;DHT22;45954;49.768;8.636;2023-07-29T08:35:59;20.60;99.90
59651;DHT22;45954;49.768;8.636;2023-07-29T08:38:25;20.70;99.90
59651;DHT22;45954;49.768;8.636;2023-07-29T08:43:56;20.80;99.90
59651;DHT22;45954;49.768;8.636;2023-07-29T08:46:32;20.70;99.90
59651;DHT22;45954;49.768;8.636;2023-07-29T08:48:59;20.80;99.90
59651;DHT22;45954;49.768;8.636;2023-07-29T08:51:28;20.80;99.90
59651;DHT22;45954;49.768;8.636;2023-07-29T08:53:55;20.90;99.90
59651;DHT22;45954;49.768;8.636;2023-07-29T08:56:21;21.20;99.90
59651;DHT22;45954;49.768;8.636;2023-07-29T08:58:48;21.20;99.90
59651;DHT22;45954;49.768;8.636;2023-07-29T09:01:15;21.30;99.90
59651;DHT22;45954;49.768;8.636;2023-07-29T09:03:42;21.30;99.90
59651;DHT22;45954;49.768;8.636;2023-07-29T09:06:08;21.40;99.90
59651;DHT22;45954;49.768;8.636;2023-07-29T09:08:35;21.50;99.90
59651;DHT22;45954;49.768;8.636;2023-07-29T09:11:01;21.60;99.90
59651;DHT22;45954;49.768;8.636;2023-07-29T09:13:27;21.70;99.90
59651;DHT22;45954;49.768;8.636;2023-07-29T09:15:57;21.80;99.90
59651;DHT22;45954;49.768;8.636;2023-07-29T09:18:23;21.60;99.90
59651;DHT22;45954;49.768;8.636;2023-07-29T09:20:52;21.60;99.90
59651;DHT22;45954;49.768;8.636;2023-07-29T09:23:18;21.60;99.90
59651;DHT22;45954;49.768;8.636;2023-07-29T09:25:46;21.60;99.90
59651;DHT22;45954;49.768;8.636;2023-07-29T09:28:16;21.60;99.90
59651;DHT22;45954;49.768;8.636;2023-07-29T09:30:45;21.70;99.90
59651;DHT22;45954;49.768;8.636;2023-07-29T09:33:12;21.80;99.90
59651;DHT22;45954;49.768;8.636;2023-07-29T09:35:38;22.00;99.90
59651;DHT22;45954;49.768;8.636;2023-07-29T09:38:05;22.00;99.90
59651;DHT22;45954;49.768;8.636;2023-07-29T09:40:40;22.00;99.90
59651;DHT22;45954;49.768;8.636;2023-07-29T09:43:08;21.90;99.90
59651;DHT22;45954;49.768;8.636;2023-07-29T09:45:36;22.00;99.90
59651;DHT22;45954;49.768;8.636;2023-07-29T09:48:04;22.10;99.90
59651;DHT22;45954;49.768;8.636;2023-07-29T09:50:34;22.10;99.90
59651;DHT22;45954;49.768;8.636;2023-07-29T09:53:03;22.40;99.90
59651;DHT22;45954;49.768;8.636;2023-07-29T09:55:32;22.40;99.90
59651;DHT22;45954;49.768;8.636;2023-07-29T09:58:01;22.50;99.90
59651;DHT22;45954;49.768;8.636;2023-07-29T10:00:30;22.50;99.90
59651;DHT22;45954;49.768;8.636;2023-07-29T10:03:00;22.60;99.90
59651;DHT22;45954;49.768;8.636;2023-07-29T10:05:28;22.70;99.90
59651;DHT22;45954;49.768;8.636;2023-07-29T10:07:56;22.90;99.90
59651;DHT22;45954;49.768;8.636;2023-07-29T10:10:23;23.00;99.90
59651;DHT22;45954;49.768;8.636;2023-07-29T10:12:50;23.20;99.90
59651;DHT22;45954;49.768;8.636;2023-07-29T10:15:17;23.40;99.90
59651;DHT22;45954;49.768;8.636;2023-07-29T10:17:46;23.60;99.90
59651;DHT22;45954;49.768;8.636;2023-07-29T10:20:12;23.60;99.90
59651;DHT22;45954;49.768;8.636;2023-07-29T10:22:40;23.70;99.90
59651;DHT22;45954;49.768;8.636;2023-07-29T10:25:10;23.80;99.90
59651;DHT22;45954;49.768;8.636;2023-07-29T10:27:53;24.00;99.90
59651;DHT22;45954;49.768;8.636;2023-07-29T10:30:21;23.70;99.90
59651;DHT22;45954;49.768;8.636;2023-07-29T10:32:50;23.80;99.90
59651;DHT22;45954;49.768;8.636;2023-07-29T10:35:17;24.00;99.90
59651;DHT22;45954;49.768;8.636;2023-07-29T10:37:43;24.00;99.90
59651;DHT22;45954;49.768;8.636;2023-07-29T10:40:11;23.90;99.90
59651;DHT22;45954;49.768;8.636;2023-07-29T10:42:39;24.20;99.90
59651;DHT22;45954;49.768;8.636;2023-07-29T10:45:25;24.40;99.90
59651;DHT22;45954;49.768;8.636;2023-07-29T10:47:51;24.00;99.90
59651;DHT22;45954;49.768;8.636;2023-07-29T10:50:21;24.00;99.90
59651;DHT22;45954;49.768;8.636;2023-07-29T10:52:52;24.40;99.90
59651;DHT22;45954;49.768;8.636;2023-07-29T10:55:36;24.50;99.90
59651;DHT22;45954;49.768;8.636;2023-07-29T10:58:16;24.40;99.90
59651;DHT22;45954;49.768;8.636;2023-07-29T11:00:45;24.70;99.90
59651;DHT22;45954;49.768;8.636;2023-07-29T11:03:13;25.00;99.90
59651;DHT22;45954;49.768;8.636;2023-07-29T11:05:48;25.30;99.90
59651;DHT22;45954;49.768;8.636;2023-07-29T11:08:31;25.20;99.90
59651;DHT22;45954;49.768;8.636;2023-07-29T11:13:30;25.20;99.90
59651;DHT22;45954;49.768;8.636;2023-07-29T11:15:58;25.20;99.90
59651;DHT22;45954;49.768;8.636;2023-07-29T11:18:30;25.50;99.90
59651;DHT22;45954;49.768;8.636;2023-07-29T11:21:04;25.50;99.90
59651;DHT22;45954;49.768;8.636;2023-07-29T11:23:36;25.10;99.90
59651;DHT22;45954;49.768;8.636;2023-07-29T11:26:03;24.90;99.90
59651;DHT22;45954;49.768;8.636;2023-07-29T11:28:30;24.90;99.90
59651;DHT22;45954;49.768;8.636;2023-07-29T11:30:57;24.90;99.90
59651;DHT22;45954;49.768;8.636;2023-07-29T11:33:25;24.80;99.90
59651;DHT22;45954;49.768;8.636;2023-07-29T11:35:54;24.70;99.90
59651;DHT22;45954;49.768;8.636;2023-07-29T11:38:22;24.70;99.90
59651;DHT22;45954;49.768;8.636;2023-07-29T11:41:01;25.20;99.90
59651;DHT22;45954;49.768;8.636;2023-07-29T11:43:37;25.20;99.90
59651;DHT22;45954;49.768;8.636;2023-07-29T11:46:03;25.00;99.90
59651;DHT22;45954;49.768;8.636;2023-07-29T11:48:33;24.80;99.90
59651;DHT22;45954;49.768;8.636;2023-07-29T11:50:59;24.80;99.90
59651;DHT22;45954;49.768;8.636;2023-07-29T11:53:28;24.80;99.90
59651;DHT22;45954;49.768;8.636;2023-07-29T11:55:55;24.80;99.90
59651;DHT22;45954;49.768;8.636;2023-07-29T11:58:21;24.80;99.90
59651;DHT22;45954;49.768;8.636;2023-07-29T12:00:48;25.20;99.90
59651;DHT22;45954;49.768;8.636;2023-07-29T12:03:15;25.20;99.90
59651;DHT22;45954;49.768;8.636;2023-07-29T12:05:44;25.10;99.90
59651;DHT22;45954;49.768;8.636;2023-07-29T12:08:10;25.20;99.90
59651;DHT22;45954;49.768;8.636;2023-07-29T12:10:37;25.40;99.90
59651;DHT22;45954;49.768;8.636;2023-07-29T12:13:03;25.60;99.50
59651;DHT22;45954;49.768;8.636;2023-07-29T12:15:30;26.00;99.10
59651;DHT22;45954;49.768;8.636;2023-07-29T12:17:57;26.20;97.80
59651;DHT22;45954;49.768;8.636;2023-07-29T12:20:24;26.30;96.90
59651;DHT22;45954;49.768;8.636;2023-07-29T12:22:59;26.30;96.50
59651;DHT22;45954;49.768;8.636;2023-07-29T12:25:29;26.60;96.50
59651;DHT22;45954;49.768;8.636;2023-07-29T12:27:55;27.00;96.00
59651;DHT22;45954;49.768;8.636;2023-07-29T12:30:22;26.90;96.60
59651;DHT22;45954;49.768;8.636;2023-07-29T12:32:48;27.30;96.90
59651;DHT22;45954;49.768;8.636;2023-07-29T12:35:14;27.00;95.90
59651;DHT22;45954;49.768;8.636;2023-07-29T12:37:41;27.30;96.60
59651;DHT22;45954;49.768;8.636;2023-07-29T12:40:28;26.80;95.90
59651;DHT22;45954;49.768;8.636;2023-07-29T12:42:55;26.70;95.90
59651;DHT22;45954;49.768;8.636;2023-07-29T12:45:21;26.70;95.90
59651;DHT22;45954;49.768;8.636;2023-07-29T12:47:52;27.00;95.10
59651;DHT22;45954;49.768;8.636;2023-07-29T12:50:18;27.10;95.60
59651;DHT22;45954;49.768;8.636;2023-07-29T12:52:44;26.90;94.70
59651;DHT22;45954;49.768;8.636;2023-07-29T12:55:09;27.20;95.50
59651;DHT22;45954;49.768;8.636;2023-07-29T12:57:42;27.00;94.20
59651;DHT22;45954;49.768;8.636;2023-07-29T13:00:09;27.10;94.10
59651;DHT22;45954;49.768;8.636;2023-07-29T13:02:35;27.00;93.50
59651;DHT22;45954;49.768;8.636;2023-07-29T13:05:01;27.10;93.60
59651;DHT22;45954;49.768;8.636;2023-07-29T13:07:27;27.30;93.00
59651;DHT22;45954;49.768;8.636;2023-07-29T13:09:53;27.50;92.60
59651;DHT22;45954;49.768;8.636;2023-07-29T13:12:20;27.20;92.30
59651;DHT22;45954;49.768;8.636;2023-07-29T13:14:46;27.10;93.10
59651;DHT22;45954;49.768;8.636;2023-07-29T13:17:12;27.60;93.00
59651;DHT22;45954;49.768;8.636;2023-07-29T13:19:37;27.80;92.70
59651;DHT22;45954;49.768;8.636;2023-07-29T13:22:03;28.00;92.30
59651;DHT22;45954;49.768;8.636;2023-07-29T13:24:29;27.90;91.50
59651;DHT22;45954;49.768;8.636;2023-07-29T13:26:55;27.60;91.80
59651;DHT22;45954;49.768;8.636;2023-07-29T13:29:21;28.00;91.40
59651;DHT22;45954;49.768;8.636;2023-07-29T13:31:49;28.20;92.30
59651;DHT22;45954;49.768;8.636;2023-07-29T13:34:15;27.90;91.60
59651;DHT22;45954;49.768;8.636;2023-07-29T13:36:41;28.50;91.60
59651;DHT22;45954;49.768;8.636;2023-07-29T13:39:07;28.90;92.00
59651;DHT22;45954;49.768;8.636;2023-07-29T13:41:32;28.50;91.40
59651;DHT22;45954;49.768;8.636;2023-07-29T13:43:58;28.50;91.20
59651;DHT22;45954;49.768;8.636;2023-07-29T13:46:24;28.70;91.40
59651;DHT22;45954;49.768;8.636;2023-07-29T13:48:50;28.30;90.90
59651;DHT22;45954;49.768;8.636;2023-07-29T13:51:16;28.20;90.90
59651;DHT22;45954;49.768;8.636;2023-07-29T13:53:42;28.10;91.20
59651;DHT22;45954;49.768;8.636;2023-07-29T13:56:07;28.70;90.40
59651;DHT22;45954;49.768;8.636;2023-07-29T13:58:33;29.40;89.40
59651;DHT22;45954;49.768;8.636;2023-07-29T14:00:59;29.40;89.10
59651;DHT22;45954;49.768;8.636;2023-07-29T14:03:25;29.20;90.00
59651;DHT22;45954;49.768;8.636;2023-07-29T14:05:51;28.80;90.50
59651;DHT22;45954;49.768;8.636;2023-07-29T14:08:16;28.80;89.70
59651;DHT22;45954;49.768;8.636;2023-07-29T14:10:42;29.10;89.80
59651;DHT22;45954;49.768;8.636;2023-07-29T14:13:08;28.90;89.40
59651;DHT22;45954;49.768;8.636;2023-07-29T14:15:34;28.40;90.10
59651;DHT22;45954;49.768;8.636;2023-07-29T14:18:00;28.30;90.30
59651;DHT22;45954;49.768;8.636;2023-07-29T14:20:28;28.40;90.00
59651;DHT22;45954;49.768;8.636;2023-07-29T14:22:54;28.90;90.30
59651;DHT22;45954;49.768;8.636;2023-07-29T14:25:19;29.50;88.80
59651;DHT22;45954;49.768;8.636;2023-07-29T14:27:45;29.90;88.90
59651;DHT22;45954;49.768;8.636;2023-07-29T14:30:11;29.30;88.40
59651;DHT22;45954;49.768;8.636;2023-07-29T14:32:37;28.90;89.00
59651;DHT22;45954;49.768;8.636;2023-07-29T14:35:03;28.50;89.30
59651;DHT22;45954;49.768;8.636;2023-07-29T14:37:30;28.40;88.80
59651;DHT22;45954;49.768;8.636;2023-07-29T14:39:58;28.00;90.00
59651;DHT22;45954;49.768;8.636;2023-07-29T14:42:24;28.40;90.90
59651;DHT22;45954;49.768;8.636;2023-07-29T14:44:50;29.50;90.30
59651;DHT22;45954;49.768;8.636;2023-07-29T14:47:16;29.30;89.10
59651;DHT22;45954;49.768;8.636;2023-07-29T14:49:42;29.40;89.30
59651;DHT22;45954;49.768;8.636;2023-07-29T14:52:09;29.40;88.70
59651;DHT22;45954;49.768;8.636;2023-07-29T14:54:34;28.80;90.10
59651;DHT22;45954;49.768;8.636;2023-07-29T14:57:00;27.90;89.50
59651;DHT22;45954;49.768;8.636;2023-07-29T14:59:26;28.00;90.10
59651;DHT22;45954;49.768;8.636;2023-07-29T15:01:52;28.50;90.50
59651;DHT22;45954;49.768;8.636;2023-07-29T15:04:18;28.10;90.80
59651;DHT22;45954;49.768;8.636;2023-07-29T15:06:47;29.30;90.20
59651;DHT22;45954;49.768;8.636;2023-07-29T15:09:12;29.10;89.60
59651;DHT22;45954;49.768;8.636;2023-07-29T15:11:38;29.00;90.10
59651;DHT22;45954;49.768;8.636;2023-07-29T15:14:04;29.20;90.20
59651;DHT22;45954;49.768;8.636;2023-07-29T15:16:30;29.00;90.40
59651;DHT22;45954;49.768;8.636;2023-07-29T15:18:56;28.10;90.50
59651;DHT22;45954;49.768;8.636;2023-07-29T15:21:22;27.60;91.00
59651;DHT22;45954;49.768;8.636;2023-07-29T15:23:48;28.40;90.90
59651;DHT22;45954;49.768;8.636;2023-07-29T15:26:13;29.60;90.80
59651;DHT22;45954;49.768;8.636;2023-07-29T15:28:39;30.50;89.50
59651;DHT22;45954;49.768;8.636;2023-07-29T15:31:05;30.90;87.40
59651;DHT22;45954;49.768;8.636;2023-07-29T15:33:31;30.90;88.10
59651;DHT22;45954;49.768;8.636;2023-07-29T15:36:02;31.30;87.90